Time;durP1;ratioP1;P1;durP2;ratioP2;P2;SDS_P1;SDS_P2;PMS_P1;PMS_P2;Temp;Humidity;BMP_temperature;BMP_pressure;BME280_temperature;BME280_humidity;BME280_pressure;Samples;Min_cycle;Max_cycle;Signal;HPM_P1;HPM_P2
2022/09/28 00:00:05;;;;;;;2.38;1.42;;;;;;;10.63;60.68;97774.28;4910574;29;20067;-68
2022/09/28 00:02:33;;;;;;;3.13;1.98;;;;;;;10.44;60.79;97746.63;4910119;29;20061;-68
2022/09/28 00:05:02;;;;;;;2.70;1.35;;;;;;;10.67;60.69;97771.28;4910133;29;20063;-68
2022/09/28 00:07:29;;;;;;;2.17;1.40;;;;;;;10.63;60.78;97775.13;4910215;29;20060;-68
2022/09/28 00:09:56;;;;;;;2.13;1.30;;;;;;;10.63;60.77;97769.00;4910421;29;20421;-69
2022/09/28 00:12:24;;;;;;;2.00;1.25;;;;;;;10.58;60.73;97769.38;4910391;29;20068;-68
2022/09/28 00:14:51;;;;;;;2.13;1.23;;;;;;;10.57;60.70;97765.88;4910256;29;20060;-68
2022/09/28 00:17:21;;;;;;;2.38;1.30;;;;;;;10.48;61.07;97763.13;4909847;29;20064;-71
2022/09/28 00:19:48;;;;;;;1.92;1.20;;;;;;;10.37;61.43;97766.63;4910318;29;20060;-68
2022/09/28 00:22:17;;;;;;;2.00;1.20;;;;;;;10.40;61.41;97766.38;4909907;29;20134;-68
2022/09/28 00:24:44;;;;;;;2.30;1.30;;;;;;;10.41;61.58;97764.56;4910460;29;20201;-69
2022/09/28 00:27:12;;;;;;;2.53;1.30;;;;;;;10.25;61.78;97770.25;4910334;29;20060;-68
2022/09/28 00:29:39;;;;;;;2.20;1.38;;;;;;;10.28;61.96;97764.69;4910083;29;20224;-68
2022/09/28 00:32:09;;;;;;;1.95;1.30;;;;;;;10.32;62.07;97752.91;4910264;29;20061;-69
2022/09/28 00:34:39;;;;;;;2.85;1.30;;;;;;;10.32;61.94;97755.56;4910082;29;20067;-68
2022/09/28 00:37:08;;;;;;;2.45;1.42;;;;;;;10.32;61.87;97749.41;4910083;29;20064;-68
2022/09/28 00:39:37;;;;;;;2.67;1.40;;;;;;;10.33;62.14;97757.22;4910086;29;20067;-68
2022/09/28 00:42:11;;;;;;;1.90;1.20;;;;;;;10.33;62.12;97753.75;4910533;29;20134;-68
2022/09/28 00:44:46;;;;;;;2.63;1.30;;;;;;;10.27;62.17;97744.47;4910035;29;20071;-68
2022/09/28 00:47:26;;;;;;;3.85;1.52;;;;;;;9.83;62.54;97673.88;4910016;29;20057;-68
2022/09/28 00:49:58;;;;;;;2.97;1.38;;;;;;;10.33;62.11;97745.78;4910159;29;20072;-68
2022/09/28 00:52:32;;;;;;;1.92;1.38;;;;;;;10.30;62.23;97744.25;4910036;29;20071;-68
2022/09/28 00:55:04;;;;;;;2.03;1.23;;;;;;;10.14;62.32;97714.66;4910121;29;20335;-68
2022/09/28 00:57:32;;;;;;;2.72;1.35;;;;;;;10.33;62.21;97746.63;4909825;29;20057;-68
2022/09/28 01:00:02;;;;;;;2.80;1.77;;;;;;;10.37;62.04;97748.06;4910095;29;20057;-68
2022/09/28 01:02:29;;;;;;;2.75;1.45;;;;;;;10.34;62.28;97761.56;4909950;29;20057;-68
2022/09/28 01:04:58;;;;;;;1.90;1.25;;;;;;;10.19;62.31;97736.31;4909896;29;20067;-68
2022/09/28 01:07:26;;;;;;;1.80;1.20;;;;;;;10.29;62.71;97774.31;4909906;29;20316;-68
2022/09/28 01:09:55;;;;;;;2.08;1.33;;;;;;;10.28;62.64;97778.78;4909868;29;20076;-68
2022/09/28 01:12:24;;;;;;;3.65;1.63;;;;;;;10.35;62.36;97773.00;4909889;29;20061;-68
2022/09/28 01:14:52;;;;;;;2.20;1.40;;;;;;;10.27;62.62;97768.31;4911406;29;20057;-68
2022/09/28 01:17:26;;;;;;;3.47;1.60;;;;;;;10.28;62.57;97767.34;4912855;29;20072;-68
2022/09/28 01:20:13;;;;;;;2.17;1.30;;;;;;;10.06;62.68;97748.81;4913588;29;20061;-68
2022/09/28 01:23:11;;;;;;;2.70;1.30;;;;;;;10.16;62.86;97776.25;4913003;29;20205;-68
2022/09/28 01:25:42;;;;;;;2.10;1.33;;;;;;;10.12;63.04;97764.22;4913072;29;20056;-68
2022/09/28 01:28:14;;;;;;;2.97;1.73;;;;;;;10.14;63.05;97768.44;4913128;29;20232;-68
2022/09/28 01:30:47;;;;;;;2.65;1.60;;;;;;;10.14;62.90;97765.78;4913094;29;20060;-68
2022/09/28 01:33:20;;;;;;;1.63;1.25;;;;;;;10.09;62.83;97775.91;4913133;29;20063;-68
2022/09/28 01:35:52;;;;;;;2.08;1.30;;;;;;;10.16;62.34;97768.31;4913054;29;20223;-68
2022/09/28 01:38:22;;;;;;;2.58;1.20;;;;;;;9.98;62.30;97762.66;4913037;29;20072;-68
2022/09/28 01:40:52;;;;;;;1.50;1.10;;;;;;;9.99;62.43;97764.34;4912950;29;20048;-68
2022/09/28 01:43:25;;;;;;;2.17;1.25;;;;;;;10.06;62.06;97767.34;4912837;29;20072;-68
2022/09/28 01:45:56;;;;;;;2.35;1.42;;;;;;;10.09;62.09;97753.88;4912682;29;20056;-68
2022/09/28 01:48:30;;;;;;;2.00;1.10;;;;;;;10.00;62.23;97746.66;4912748;29;20064;-68
2022/09/28 01:51:03;;;;;;;1.35;1.00;;;;;;;9.80;62.47;97714.66;4912850;29;20060;-68
2022/09/28 01:53:35;;;;;;;2.15;1.20;;;;;;;9.97;62.46;97739.78;4912679;29;20071;-68
2022/09/28 01:56:07;;;;;;;2.80;1.20;;;;;;;9.92;62.62;97749.91;4912550;29;20316;-69
2022/09/28 01:58:40;;;;;;;2.03;1.25;;;;;;;9.90;62.71;97750.03;4912428;29;20060;-68
2022/09/28 02:01:13;;;;;;;1.67;1.10;;;;;;;9.90;62.82;97751.81;4912659;29;20060;-68
2022/09/28 02:03:48;;;;;;;1.73;1.10;;;;;;;9.90;62.58;97755.31;4912304;29;20060;-68
2022/09/28 02:06:20;;;;;;;3.83;1.15;;;;;;;9.90;62.75;97759.75;4912576;29;20075;-69
2022/09/28 02:08:52;;;;;;;2.58;1.40;;;;;;;9.88;62.77;97756.38;4912699;29;20060;-68
2022/09/28 02:11:21;;;;;;;2.72;1.13;;;;;;;9.89;62.71;97760.72;4912546;29;20201;-68
2022/09/28 02:13:54;;;;;;;5.80;1.33;;;;;;;9.87;62.80;97760.84;4912588;29;20056;-69
2022/09/28 02:16:26;;;;;;;2.28;1.27;;;;;;;9.33;62.77;97697.13;4911796;29;20052;-69
2022/09/28 02:18:54;;;;;;;2.97;1.25;;;;;;;9.78;63.35;97766.00;4912095;29;20056;-69
2022/09/28 02:21:25;;;;;;;2.17;1.20;;;;;;;9.78;63.40;97761.56;4912035;29;20061;-69
2022/09/28 02:23:58;;;;;;;2.40;1.10;;;;;;;9.78;63.28;97758.91;4912335;29;20067;-68
2022/09/28 02:26:32;;;;;;;2.65;1.27;;;;;;;9.78;63.05;97752.78;4911822;29;20060;-69
2022/09/28 02:29:00;;;;;;;2.55;1.40;;;;;;;9.83;63.35;97747.97;4912095;29;20057;-68
2022/09/28 02:31:28;;;;;;;2.10;1.42;;;;;;;9.84;63.11;97750.50;4912278;29;20060;-68
2022/09/28 02:33:57;;;;;;;2.85;1.30;;;;;;;9.82;63.33;97748.94;4912237;29;20212;-68
2022/09/28 02:36:26;;;;;;;3.33;1.40;;;;;;;9.86;63.32;97742.44;4912000;29;20063;-68
2022/09/28 02:38:53;;;;;;;2.90;1.40;;;;;;;9.90;63.15;97744.72;4912138;29;20060;-68
2022/09/28 02:41:32;;;;;;;2.13;1.55;;;;;;;10.01;63.54;97746.53;4911981;29;20057;-69
2022/09/28 02:44:13;;;;;;;2.50;1.50;;;;;;;10.07;63.79;97738.13;4911648;29;20061;-69
2022/09/28 02:46:48;;;;;;;3.58;1.52;;;;;;;10.12;63.44;97751.81;4912030;29;20056;-69
2022/09/28 02:49:25;;;;;;;2.70;1.52;;;;;;;10.11;63.17;97738.72;4911837;29;20076;-69
